sensor_id;sensor_type;location;lat;lon;timestamp;pressure;altitude;pressure_sealevel;temperature;humidity
19096;BME280;9680;52.520;13.332;2023-04-27T00:00:50;101560.63;;;7.72;57.29
19096;BME280;9680;52.520;13.332;2023-04-27T00:03:17;101556.22;;;7.78;57.18
19096;BME280;9680;52.520;13.332;2023-04-27T00:05:43;101559.66;;;7.80;57.03
19096;BME280;9680;52.520;13.332;2023-04-27T00:08:12;101558.81;;;7.79;56.74
19096;BME280;9680;52.520;13.332;2023-04-27T00:10:38;101564.00;;;7.79;56.94
19096;BME280;9680;52.520;13.332;2023-04-27T00:13:05;101556.22;;;7.78;56.88
19096;BME280;9680;52.520;13.332;2023-04-27T00:15:32;101548.53;;;7.71;57.04
19096;BME280;9680;52.520;13.332;2023-04-27T00:17:58;101551.19;;;7.65;57.14
19096;BME280;9680;52.520;13.332;2023-04-27T00:20:26;101555.59;;;7.60;57.17
19096;BME280;9680;52.520;13.332;2023-04-27T00:22:52;101546.94;;;7.63;57.20
19096;BME280;9680;52.520;13.332;2023-04-27T00:25:21;101550.34;;;7.65;57.20
19096;BME280;9680;52.520;13.332;2023-04-27T00:27:47;101551.28;;;7.59;57.25
19096;BME280;9680;52.520;13.332;2023-04-27T00:30:14;101557.31;;;7.60;57.13
19096;BME280;9680;52.520;13.332;2023-04-27T00:32:41;101555.56;;;7.62;57.53
19096;BME280;9680;52.520;13.332;2023-04-27T00:35:08;101550.44;;;7.57;57.29
19096;BME280;9680;52.520;13.332;2023-04-27T00:37:35;101550.41;;;7.58;57.32
19096;BME280;9680;52.520;13.332;2023-04-27T00:40:03;101556.44;;;7.61;57.20
19096;BME280;9680;52.520;13.332;2023-04-27T00:42:32;101554.66;;;7.64;57.17
19096;BME280;9680;52.520;13.332;2023-04-27T00:44:59;101558.13;;;7.63;57.06
19096;BME280;9680;52.520;13.332;2023-04-27T00:47:27;101566.84;;;7.57;57.33
19096;BME280;9680;52.520;13.332;2023-04-27T00:49:55;101563.47;;;7.51;57.38
19096;BME280;9680;52.520;13.332;2023-04-27T00:52:24;101578.25;;;7.44;57.56
19096;BME280;9680;52.520;13.332;2023-04-27T00:54:51;101571.44;;;7.35;57.93
19096;BME280;9680;52.520;13.332;2023-04-27T00:57:19;101570.59;;;7.32;58.04
19096;BME280;9680;52.520;13.332;2023-04-27T00:59:49;101579.25;;;7.32;57.95
19096;BME280;9680;52.520;13.332;2023-04-27T01:02:16;101575.75;;;7.35;58.39
19096;BME280;9680;52.520;13.332;2023-04-27T01:04:44;101578.44;;;7.25;58.49
19096;BME280;9680;52.520;13.332;2023-04-27T01:07:11;101578.47;;;7.21;58.98
19096;BME280;9680;52.520;13.332;2023-04-27T01:09:38;101586.31;;;7.16;59.00
19096;BME280;9680;52.520;13.332;2023-04-27T01:12:06;101586.28;;;7.19;59.26
19096;BME280;9680;52.520;13.332;2023-04-27T01:14:33;101582.84;;;7.16;59.50
19096;BME280;9680;52.520;13.332;2023-04-27T01:17:02;101573.38;;;7.14;59.65
19096;BME280;9680;52.520;13.332;2023-04-27T01:19:30;101588.03;;;7.16;59.76
19096;BME280;9680;52.520;13.332;2023-04-27T01:21:57;101578.56;;;7.16;59.93
19096;BME280;9680;52.520;13.332;2023-04-27T01:24:25;101578.53;;;7.19;59.92
19096;BME280;9680;52.520;13.332;2023-04-27T01:26:52;101586.25;;;7.21;59.72
19096;BME280;9680;52.520;13.332;2023-04-27T01:29:19;101588.88;;;7.19;59.91
19096;BME280;9680;52.520;13.332;2023-04-27T01:31:46;101587.22;;;7.12;59.98
19096;BME280;9680;52.520;13.332;2023-04-27T01:34:14;101590.63;;;7.16;59.88
19096;BME280;9680;52.520;13.332;2023-04-27T01:36:41;101590.63;;;7.17;59.96
19096;BME280;9680;52.520;13.332;2023-04-27T01:39:07;101588.00;;;7.19;59.96
19096;BME280;9680;52.520;13.332;2023-04-27T01:41:36;101587.19;;;7.15;60.02
19096;BME280;9680;52.520;13.332;2023-04-27T01:44:02;101589.91;;;7.03;60.22
19096;BME280;9680;52.520;13.332;2023-04-27T01:46:29;101590.81;;;6.95;60.09
19096;BME280;9680;52.520;13.332;2023-04-27T01:48:56;101600.34;;;6.96;60.29
19096;BME280;9680;52.520;13.332;2023-04-27T01:51:23;101600.34;;;6.95;60.34
19096;BME280;9680;52.520;13.332;2023-04-27T01:53:49;101600.31;;;6.98;60.24
19096;BME280;9680;52.520;13.332;2023-04-27T01:56:16;101603.78;;;6.97;60.18
19096;BME280;9680;52.520;13.332;2023-04-27T01:58:45;101603.81;;;6.94;60.10
19096;BME280;9680;52.520;13.332;2023-04-27T02:01:12;101609.00;;;6.89;60.33
19096;BME280;9680;52.520;13.332;2023-04-27T02:03:38;101617.66;;;6.88;60.41
19096;BME280;9680;52.520;13.332;2023-04-27T02:06:06;101612.50;;;6.87;60.46
19096;BME280;9680;52.520;13.332;2023-04-27T02:08:33;101618.53;;;6.87;60.44
19096;BME280;9680;52.520;13.332;2023-04-27T02:11:00;101616.84;;;6.84;60.62
19096;BME280;9680;52.520;13.332;2023-04-27T02:13:27;101613.38;;;6.85;60.62
19096;BME280;9680;52.520;13.332;2023-04-27T02:15:55;101617.72;;;6.82;60.56
19096;BME280;9680;52.520;13.332;2023-04-27T02:18:22;101614.28;;;6.80;60.61
19096;BME280;9680;52.520;13.332;2023-04-27T02:20:49;101625.50;;;6.79;60.59
19096;BME280;9680;52.520;13.332;2023-04-27T02:23:16;101620.34;;;6.76;60.91
19096;BME280;9680;52.520;13.332;2023-04-27T02:25:43;101626.41;;;6.76;60.36
19096;BME280;9680;52.520;13.332;2023-04-27T02:28:11;101623.78;;;6.78;60.58
19096;BME280;9680;52.520;13.332;2023-04-27T02:30:38;101627.25;;;6.77;60.40
19096;BME280;9680;52.520;13.332;2023-04-27T02:33:06;101629.91;;;6.67;60.57
19096;BME280;9680;52.520;13.332;2023-04-27T02:35:32;101625.56;;;6.69;60.59
19096;BME280;9680;52.520;13.332;2023-04-27T02:37:59;101625.63;;;6.65;60.62
19096;BME280;9680;52.520;13.332;2023-04-27T02:40:26;101629.09;;;6.64;60.70
19096;BME280;9680;52.520;13.332;2023-04-27T02:42:53;101631.63;;;6.70;60.58
19096;BME280;9680;52.520;13.332;2023-04-27T02:45:19;101629.00;;;6.72;60.61
19096;BME280;9680;52.520;13.332;2023-04-27T02:47:46;101625.56;;;6.73;60.59
19096;BME280;9680;52.520;13.332;2023-04-27T02:50:14;101623.84;;;6.72;60.35
19096;BME280;9680;52.520;13.332;2023-04-27T02:52:41;101628.19;;;6.66;60.46
19096;BME280;9680;52.520;13.332;2023-04-27T02:55:08;101634.28;;;6.64;60.49
19096;BME280;9680;52.520;13.332;2023-04-27T02:57:35;101624.78;;;6.60;60.65
19096;BME280;9680;52.520;13.332;2023-04-27T03:00:03;101638.59;;;6.60;60.74
19096;BME280;9680;52.520;13.332;2023-04-27T03:02:34;101637.72;;;6.61;60.61
19096;BME280;9680;52.520;13.332;2023-04-27T03:05:00;101641.19;;;6.60;60.70
19096;BME280;9680;52.520;13.332;2023-04-27T03:07:29;101642.06;;;6.59;60.70
19096;BME280;9680;52.520;13.332;2023-04-27T03:09:56;101641.22;;;6.57;60.71
19096;BME280;9680;52.520;13.332;2023-04-27T03:12:23;101642.06;;;6.59;60.88
19096;BME280;9680;52.520;13.332;2023-04-27T03:14:50;101640.34;;;6.55;60.90
19096;BME280;9680;52.520;13.332;2023-04-27T03:17:17;101637.78;;;6.55;61.06
19096;BME280;9680;52.520;13.332;2023-04-27T03:19:46;101639.50;;;6.56;60.91
19096;BME280;9680;52.520;13.332;2023-04-27T03:22:13;101640.38;;;6.52;60.97
19096;BME280;9680;52.520;13.332;2023-04-27T03:24:42;101640.38;;;6.50;60.93
19096;BME280;9680;52.520;13.332;2023-04-27T03:27:09;101640.41;;;6.47;60.78
19096;BME280;9680;52.520;13.332;2023-04-27T03:29:35;101643.81;;;6.54;61.00
19096;BME280;9680;52.520;13.332;2023-04-27T03:32:03;101646.34;;;6.59;60.90
19096;BME280;9680;52.520;13.332;2023-04-27T03:34:30;101651.53;;;6.60;61.01
19096;BME280;9680;52.520;13.332;2023-04-27T03:36:57;101646.41;;;6.54;60.82
19096;BME280;9680;52.520;13.332;2023-04-27T03:39:24;101652.44;;;6.54;60.89
19096;BME280;9680;52.520;13.332;2023-04-27T03:41:52;101652.44;;;6.54;60.97
19096;BME280;9680;52.520;13.332;2023-04-27T03:44:19;101658.47;;;6.53;61.03
19096;BME280;9680;52.520;13.332;2023-04-27T03:46:45;101662.78;;;6.56;61.06
19096;BME280;9680;52.520;13.332;2023-04-27T03:49:12;101665.38;;;6.56;61.07
19096;BME280;9680;52.520;13.332;2023-04-27T03:51:39;101661.03;;;6.56;61.08
19096;BME280;9680;52.520;13.332;2023-04-27T03:54:07;101662.78;;;6.56;61.09
19096;BME280;9680;52.520;13.332;2023-04-27T03:56:35;101666.25;;;6.55;61.06
19096;BME280;9680;52.520;13.332;2023-04-27T03:59:04;101675.72;;;6.54;61.04
19096;BME280;9680;52.520;13.332;2023-04-27T04:01:32;101669.69;;;6.54;61.17
19096;BME280;9680;52.520;13.332;2023-04-27T04:03:59;101669.69;;;6.54;61.03
19096;BME280;9680;52.520;13.332;2023-04-27T04:06:26;101680.00;;;6.59;61.05
19096;BME280;9680;52.520;13.332;2023-04-27T04:08:54;101678.28;;;6.58;61.03
19096;BME280;9680;52.520;13.332;2023-04-27T04:11:21;101674.84;;;6.60;60.94
19096;BME280;9680;52.520;13.332;2023-04-27T04:13:52;101683.47;;;6.62;60.91
19096;BME280;9680;52.520;13.332;2023-04-27T04:16:20;101687.75;;;6.63;61.02
19096;BME280;9680;52.520;13.332;2023-04-27T04:18:46;101683.44;;;6.65;60.81
19096;BME280;9680;52.520;13.332;2023-04-27T04:21:14;101687.72;;;6.69;60.90
19096;BME280;9680;52.520;13.332;2023-04-27T04:23:41;101691.19;;;6.68;60.71
19096;BME280;9680;52.520;13.332;2023-04-27T04:26:08;101692.03;;;6.70;60.67
19096;BME280;9680;52.520;13.332;2023-04-27T04:28:35;101694.56;;;6.77;60.67
19096;BME280;9680;52.520;13.332;2023-04-27T04:31:02;101698.91;;;6.76;60.17
19096;BME280;9680;52.520;13.332;2023-04-27T04:33:32;101700.59;;;6.79;60.49
19096;BME280;9680;52.520;13.332;2023-04-27T04:36:02;101693.66;;;6.84;60.24
19096;BME280;9680;52.520;13.332;2023-04-27T04:38:29;101697.94;;;6.88;60.14
19096;BME280;9680;52.520;13.332;2023-04-27T04:40:58;101704.81;;;6.95;59.86
19096;BME280;9680;52.520;13.332;2023-04-27T04:43:24;101704.81;;;6.97;59.73
19096;BME280;9680;52.520;13.332;2023-04-27T04:45:51;101699.66;;;6.92;59.50
19096;BME280;9680;52.520;13.332;2023-04-27T04:48:18;101703.97;;;6.92;59.10
19096;BME280;9680;52.520;13.332;2023-04-27T04:50:48;101712.59;;;6.92;59.16
19096;BME280;9680;52.520;13.332;2023-04-27T04:53:14;101712.56;;;6.95;59.22
19096;BME280;9680;52.520;13.332;2023-04-27T04:55:41;101715.16;;;7.00;58.98
19096;BME280;9680;52.520;13.332;2023-04-27T04:58:08;101710.84;;;7.01;59.15
19096;BME280;9680;52.520;13.332;2023-04-27T05:00:35;101709.88;;;7.11;59.14
19096;BME280;9680;52.520;13.332;2023-04-27T05:03:02;101721.03;;;7.22;58.99
19096;BME280;9680;52.520;13.332;2023-04-27T05:05:31;101714.06;;;7.26;58.65
19096;BME280;9680;52.520;13.332;2023-04-27T05:07:59;101718.41;;;7.24;58.71
19096;BME280;9680;52.520;13.332;2023-04-27T05:10:26;101716.63;;;7.32;58.69
19096;BME280;9680;52.520;13.332;2023-04-27T05:12:52;101715.66;;;7.44;58.76
19096;BME280;9680;52.520;13.332;2023-04-27T05:15:19;101719.00;;;7.55;58.50
19096;BME280;9680;52.520;13.332;2023-04-27T05:17:46;101712.88;;;7.66;58.29
19096;BME280;9680;52.520;13.332;2023-04-27T05:20:13;101718.78;;;7.77;58.05
19096;BME280;9680;52.520;13.332;2023-04-27T05:22:39;101718.72;;;7.82;57.62
19096;BME280;9680;52.520;13.332;2023-04-27T05:25:08;101707.50;;;7.80;57.40
19096;BME280;9680;52.520;13.332;2023-04-27T05:27:35;101718.72;;;7.83;57.37
19096;BME280;9680;52.520;13.332;2023-04-27T05:30:02;101720.38;;;7.89;57.38
19096;BME280;9680;52.520;13.332;2023-04-27T05:32:29;101715.19;;;7.91;56.73
19096;BME280;9680;52.520;13.332;2023-04-27T05:34:57;101723.78;;;7.96;56.97
19096;BME280;9680;52.520;13.332;2023-04-27T05:37:24;101721.03;;;8.08;56.74
19096;BME280;9680;52.520;13.332;2023-04-27T05:39:51;101718.41;;;8.13;56.81
19096;BME280;9680;52.520;13.332;2023-04-27T05:42:19;101723.44;;;8.25;56.31
19096;BME280;9680;52.520;13.332;2023-04-27T05:44:46;101722.47;;;8.33;55.80
19096;BME280;9680;52.520;13.332;2023-04-27T05:47:12;101725.03;;;8.37;55.74
19096;BME280;9680;52.520;13.332;2023-04-27T05:49:39;101718.03;;;8.41;55.50
19096;BME280;9680;52.520;13.332;2023-04-27T05:52:06;101725.72;;;8.50;55.29
19096;BME280;9680;52.520;13.332;2023-04-27T05:54:33;101719.56;;;8.59;55.28
19096;BME280;9680;52.520;13.332;2023-04-27T05:57:15;101731.75;;;8.54;54.67
19096;BME280;9680;52.520;13.332;2023-04-27T05:59:43;101732.91;;;8.31;54.71
19096;BME280;9680;52.520;13.332;2023-04-27T06:02:10;101738.31;;;8.09;55.28
19096;BME280;9680;52.520;13.332;2023-04-27T06:04:40;101745.22;;;8.12;55.64
19096;BME280;9680;52.520;13.332;2023-04-27T06:07:07;101738.97;;;8.30;55.73
19096;BME280;9680;52.520;13.332;2023-04-27T06:09:34;101739.66;;;8.43;55.15
19096;BME280;9680;52.520;13.332;2023-04-27T06:12:01;101739.66;;;8.44;54.84
19096;BME280;9680;52.520;13.332;2023-04-27T06:14:28;101743.81;;;8.56;54.93
19096;BME280;9680;52.520;13.332;2023-04-27T06:16:57;101744.66;;;8.62;54.88
19096;BME280;9680;52.520;13.332;2023-04-27T06:19:23;101747.31;;;8.55;54.49
19096;BME280;9680;52.520;13.332;2023-04-27T06:21:52;101748.38;;;8.37;54.29
19096;BME280;9680;52.520;13.332;2023-04-27T06:24:19;101751.16;;;8.22;54.60
19096;BME280;9680;52.520;13.332;2023-04-27T06:26:47;101753.91;;;8.11;54.57
19096;BME280;9680;52.520;13.332;2023-04-27T06:29:14;101754.06;;;7.94;54.73
19096;BME280;9680;52.520;13.332;2023-04-27T06:31:41;101761.16;;;7.79;54.60
19096;BME280;9680;52.520;13.332;2023-04-27T06:34:09;101756.16;;;7.56;55.08
19096;BME280;9680;52.520;13.332;2023-04-27T06:36:35;101754.41;;;7.56;55.55
19096;BME280;9680;52.520;13.332;2023-04-27T06:39:02;101754.31;;;7.72;55.29
19096;BME280;9680;52.520;13.332;2023-04-27T06:41:29;101759.34;;;7.84;55.43
19096;BME280;9680;52.520;13.332;2023-04-27T06:43:56;101762.63;;;8.04;54.65
19096;BME280;9680;52.520;13.332;2023-04-27T06:46:22;101766.81;;;8.17;54.46
19096;BME280;9680;52.520;13.332;2023-04-27T06:48:49;101761.53;;;8.23;54.45
19096;BME280;9680;52.520;13.332;2023-04-27T06:51:18;101760.81;;;8.10;53.68
19096;BME280;9680;52.520;13.332;2023-04-27T06:53:45;101759.19;;;8.00;54.24
19096;BME280;9680;52.520;13.332;2023-04-27T06:56:11;101766.81;;;8.15;54.23
19096;BME280;9680;52.520;13.332;2023-04-27T06:58:38;101761.56;;;8.20;53.49
19096;BME280;9680;52.520;13.332;2023-04-27T07:01:05;101768.44;;;8.24;53.59
19096;BME280;9680;52.520;13.332;2023-04-27T07:03:33;101758.66;;;8.47;53.70
19096;BME280;9680;52.520;13.332;2023-04-27T07:06:01;101770.63;;;8.60;53.52
19096;BME280;9680;52.520;13.332;2023-04-27T07:08:29;101766.00;;;8.82;53.53
19096;BME280;9680;52.520;13.332;2023-04-27T07:10:56;101771.16;;;8.84;52.55
19096;BME280;9680;52.520;13.332;2023-04-27T07:13:23;101765.63;;;9.09;52.77
19096;BME280;9680;52.520;13.332;2023-04-27T07:15:54;101763.50;;;9.34;52.33
19096;BME280;9680;52.520;13.332;2023-04-27T07:18:22;101764.91;;;9.54;51.65
19096;BME280;9680;52.520;13.332;2023-04-27T07:20:50;101762.50;;;9.90;51.45
19096;BME280;9680;52.520;13.332;2023-04-27T07:23:17;101750.47;;;10.30;50.60
19096;BME280;9680;52.520;13.332;2023-04-27T07:25:45;101756.19;;;10.87;49.90
19096;BME280;9680;52.520;13.332;2023-04-27T07:28:12;101755.53;;;11.16;47.46
19096;BME280;9680;52.520;13.332;2023-04-27T07:30:39;101750.41;;;11.48;47.80
19096;BME280;9680;52.520;13.332;2023-04-27T07:33:06;101756.50;;;11.82;47.21
19096;BME280;9680;52.520;13.332;2023-04-27T07:35:34;101751.06;;;11.89;45.60
19096;BME280;9680;52.520;13.332;2023-04-27T07:38:01;101743.75;;;11.71;45.69
19096;BME280;9680;52.520;13.332;2023-04-27T07:40:28;101742.41;;;11.87;45.93
19096;BME280;9680;52.520;13.332;2023-04-27T07:42:58;101754.91;;;11.76;44.33
19096;BME280;9680;52.520;13.332;2023-04-27T07:45:26;101751.16;;;11.86;45.14
19096;BME280;9680;52.520;13.332;2023-04-27T07:47:57;101753.69;;;11.88;44.39
19096;BME280;9680;52.520;13.332;2023-04-27T07:50:25;101751.44;;;11.75;43.88
19096;BME280;9680;52.520;13.332;2023-04-27T07:52:52;101758.44;;;11.73;45.09
19096;BME280;9680;52.520;13.332;2023-04-27T07:55:19;101753.59;;;11.92;44.23
19096;BME280;9680;52.520;13.332;2023-04-27T07:57:48;101762.91;;;12.03;44.09
19096;BME280;9680;52.520;13.332;2023-04-27T08:00:16;101770.84;;;12.31;43.97
19096;BME280;9680;52.520;13.332;2023-04-27T08:02:43;101764.31;;;12.46;42.42
19096;BME280;9680;52.520;13.332;2023-04-27T08:05:10;101761.19;;;12.02;42.13
19096;BME280;9680;52.520;13.332;2023-04-27T08:07:37;101771.19;;;11.51;42.80
19096;BME280;9680;52.520;13.332;2023-04-27T08:10:05;101776.16;;;11.26;43.93
19096;BME280;9680;52.520;13.332;2023-04-27T08:12:33;101772.47;;;11.34;44.04
19096;BME280;9680;52.520;13.332;2023-04-27T08:15:00;101774.72;;;11.83;44.10
19096;BME280;9680;52.520;13.332;2023-04-27T08:17:28;101773.88;;;12.16;43.22
19096;BME280;9680;52.520;13.332;2023-04-27T08:19:55;101767.84;;;12.44;42.86
19096;BME280;9680;52.520;13.332;2023-04-27T08:22:22;101774.66;;;12.49;41.68
19096;BME280;9680;52.520;13.332;2023-04-27T08:24:48;101783.69;;;12.39;42.36
19096;BME280;9680;52.520;13.332;2023-04-27T08:27:16;101774.22;;;12.03;41.55
19096;BME280;9680;52.520;13.332;2023-04-27T08:29:47;101778.94;;;11.54;42.27
19096;BME280;9680;52.520;13.332;2023-04-27T08:32:14;101772.88;;;11.19;42.59
19096;BME280;9680;52.520;13.332;2023-04-27T08:34:42;101776.38;;;11.16;42.99
19096;BME280;9680;52.520;13.332;2023-04-27T08:37:10;101775.50;;;11.17;42.93
19096;BME280;9680;52.520;13.332;2023-04-27T08:39:37;101782.09;;;11.32;43.56
19096;BME280;9680;52.520;13.332;2023-04-27T08:42:11;101768.41;;;11.59;42.99
19096;BME280;9680;52.520;13.332;2023-04-27T08:44:38;101781.59;;;11.86;43.04
19096;BME280;9680;52.520;13.332;2023-04-27T08:47:05;101771.06;;;11.90;40.57
19096;BME280;9680;52.520;13.332;2023-04-27T08:49:33;101774.41;;;11.62;41.14
19096;BME280;9680;52.520;13.332;2023-04-27T08:52:01;101775.81;;;11.41;41.42
19096;BME280;9680;52.520;13.332;2023-04-27T08:54:28;101768.00;;;11.40;42.20
19096;BME280;9680;52.520;13.332;2023-04-27T08:56:55;101780.06;;;11.45;41.80
19096;BME280;9680;52.520;13.332;2023-04-27T08:59:22;101777.16;;;11.56;42.21
19096;BME280;9680;52.520;13.332;2023-04-27T09:01:48;101780.56;;;11.60;41.86
19096;BME280;9680;52.520;13.332;2023-04-27T09:04:15;101778.09;;;11.54;42.04
19096;BME280;9680;52.520;13.332;2023-04-27T09:06:43;101771.91;;;11.91;42.04
19096;BME280;9680;52.520;13.332;2023-04-27T09:09:20;101771.56;;;12.66;41.76
19096;BME280;9680;52.520;13.332;2023-04-27T09:11:47;101768.88;;;13.23;40.85
19096;BME280;9680;52.520;13.332;2023-04-27T09:14:16;101772.38;;;12.97;39.98
19096;BME280;9680;52.520;13.332;2023-04-27T09:16:42;101783.97;;;12.28;40.66
19096;BME280;9680;52.520;13.332;2023-04-27T09:19:10;101783.91;;;11.65;41.28
19096;BME280;9680;52.520;13.332;2023-04-27T09:21:37;101785.00;;;11.20;42.10
19096;BME280;9680;52.520;13.332;2023-04-27T09:24:10;101782.56;;;11.12;42.29
19096;BME280;9680;52.520;13.332;2023-04-27T09:26:38;101771.53;;;11.01;41.81
19096;BME280;9680;52.520;13.332;2023-04-27T09:29:07;101772.72;;;11.25;41.94
19096;BME280;9680;52.520;13.332;2023-04-27T09:31:35;101779.34;;;11.39;41.63
19096;BME280;9680;52.520;13.332;2023-04-27T09:34:02;101769.41;;;11.53;41.13
19096;BME280;9680;52.520;13.332;2023-04-27T09:36:30;101769.13;;;11.64;40.95
19096;BME280;9680;52.520;13.332;2023-04-27T09:38:57;101758.59;;;11.69;41.17
19096;BME280;9680;52.520;13.332;2023-04-27T09:41:24;101759.13;;;12.13;41.12
19096;BME280;9680;52.520;13.332;2023-04-27T09:43:54;101762.00;;;12.05;40.26
19096;BME280;9680;52.520;13.332;2023-04-27T09:46:22;101761.13;;;11.72;40.38
19096;BME280;9680;52.520;13.332;2023-04-27T09:48:50;101759.03;;;11.51;40.26
19096;BME280;9680;52.520;13.332;2023-04-27T09:51:18;101757.50;;;11.43;40.31
19096;BME280;9680;52.520;13.332;2023-04-27T09:53:48;101758.69;;;11.31;40.94
19096;BME280;9680;52.520;13.332;2023-04-27T09:56:25;101748.66;;;11.48;41.32
19096;BME280;9680;52.520;13.332;2023-04-27T09:59:04;101748.09;;;11.37;40.10
19096;BME280;9680;52.520;13.332;2023-04-27T10:01:39;101738.88;;;11.22;40.13
19096;BME280;9680;52.520;13.332;2023-04-27T10:04:18;101749.13;;;10.92;39.14
19096;BME280;9680;52.520;13.332;2023-04-27T10:07:00;101747.91;;;11.09;39.01
19096;BME280;9680;52.520;13.332;2023-04-27T10:09:33;101749.81;;;11.36;38.55
19096;BME280;9680;52.520;13.332;2023-04-27T10:12:13;101731.41;;;11.76;37.06
19096;BME280;9680;52.520;13.332;2023-04-27T10:14:49;101736.38;;;11.85;37.46
19096;BME280;9680;52.520;13.332;2023-04-27T10:17:16;101736.94;;;12.30;37.76
19096;BME280;9680;52.520;13.332;2023-04-27T10:19:52;101729.56;;;12.71;36.34
19096;BME280;9680;52.520;13.332;2023-04-27T10:22:20;101733.97;;;12.71;36.98
19096;BME280;9680;52.520;13.332;2023-04-27T10:24:49;101736.22;;;12.53;37.40
19096;BME280;9680;52.520;13.332;2023-04-27T10:27:17;101730.56;;;12.38;37.74
19096;BME280;9680;52.520;13.332;2023-04-27T10:29:48;101736.03;;;12.31;37.99
19096;BME280;9680;52.520;13.332;2023-04-27T10:32:20;101738.06;;;12.19;38.76
19096;BME280;9680;52.520;13.332;2023-04-27T10:34:48;101738.97;;;12.18;38.91
19096;BME280;9680;52.520;13.332;2023-04-27T10:37:17;101736.03;;;12.31;38.76
19096;BME280;9680;52.520;13.332;2023-04-27T10:39:46;101731.75;;;12.57;38.90
19096;BME280;9680;52.520;13.332;2023-04-27T10:42:13;101738.22;;;12.73;37.53
19096;BME280;9680;52.520;13.332;2023-04-27T10:44:39;101735.88;;;12.92;35.89
19096;BME280;9680;52.520;13.332;2023-04-27T10:47:15;101730.00;;;12.86;34.86
19096;BME280;9680;52.520;13.332;2023-04-27T10:49:44;101728.00;;;13.21;35.45
19096;BME280;9680;52.520;13.332;2023-04-27T10:52:11;101729.25;;;13.87;35.15
19096;BME280;9680;52.520;13.332;2023-04-27T10:54:38;101722.00;;;14.19;33.07
19096;BME280;9680;52.520;13.332;2023-04-27T10:57:07;101723.06;;;13.89;33.79
19096;BME280;9680;52.520;13.332;2023-04-27T10:59:46;101721.16;;;13.44;33.15
19096;BME280;9680;52.520;13.332;2023-04-27T11:02:15;101727.56;;;12.79;34.47
19096;BME280;9680;52.520;13.332;2023-04-27T11:04:42;101728.44;;;12.51;35.57
19096;BME280;9680;52.520;13.332;2023-04-27T11:07:09;101729.44;;;12.47;35.85
19096;BME280;9680;52.520;13.332;2023-04-27T11:09:38;101731.25;;;12.45;36.08
19096;BME280;9680;52.520;13.332;2023-04-27T11:12:06;101730.97;;;12.55;36.36
19096;BME280;9680;52.520;13.332;2023-04-27T11:14:33;101729.38;;;12.77;35.91
19096;BME280;9680;52.520;13.332;2023-04-27T11:17:01;101724.88;;;13.09;36.09
19096;BME280;9680;52.520;13.332;2023-04-27T11:19:30;101728.00;;;13.48;35.73
19096;BME280;9680;52.520;13.332;2023-04-27T11:22:03;101735.69;;;13.78;34.77
19096;BME280;9680;52.520;13.332;2023-04-27T11:24:31;101729.97;;;13.92;34.10
19096;BME280;9680;52.520;13.332;2023-04-27T11:26:58;101727.69;;;14.06;33.91
19096;BME280;9680;52.520;13.332;2023-04-27T11:29:25;101733.38;;;14.18;32.86
19096;BME280;9680;52.520;13.332;2023-04-27T11:32:03;101747.13;;;13.75;32.54
19096;BME280;9680;52.520;13.332;2023-04-27T11:34:31;101750.63;;;13.49;33.30
19096;BME280;9680;52.520;13.332;2023-04-27T11:37:02;101745.72;;;13.13;33.58
19096;BME280;9680;52.520;13.332;2023-04-27T11:39:32;101748.97;;;13.19;34.53
19096;BME280;9680;52.520;13.332;2023-04-27T11:42:14;101747.31;;;13.17;34.01
19096;BME280;9680;52.520;13.332;2023-04-27T11:44:40;101749.31;;;13.35;34.30
19096;BME280;9680;52.520;13.332;2023-04-27T11:47:07;101748.47;;;13.35;34.30
19096;BME280;9680;52.520;13.332;2023-04-27T11:49:35;101754.25;;;13.46;34.65
19096;BME280;9680;52.520;13.332;2023-04-27T11:52:03;101750.41;;;14.06;34.08
19096;BME280;9680;52.520;13.332;2023-04-27T11:54:30;101745.47;;;14.68;33.63
19096;BME280;9680;52.520;13.332;2023-04-27T11:57:03;101744.69;;;15.10;32.90
19096;BME280;9680;52.520;13.332;2023-04-27T11:59:31;101760.47;;;15.09;31.02
19096;BME280;9680;52.520;13.332;2023-04-27T12:01:58;101752.38;;;14.47;30.69
19096;BME280;9680;52.520;13.332;2023-04-27T12:04:25;101752.94;;;14.33;32.20
19096;BME280;9680;52.520;13.332;2023-04-27T12:06:53;101759.66;;;14.40;32.45
19096;BME280;9680;52.520;13.332;2023-04-27T12:09:19;101750.31;;;14.33;32.58
19096;BME280;9680;52.520;13.332;2023-04-27T12:11:46;101756.47;;;14.32;32.05
19096;BME280;9680;52.520;13.332;2023-04-27T12:14:13;101756.78;;;14.22;32.16
19096;BME280;9680;52.520;13.332;2023-04-27T12:16:40;101761.22;;;14.20;31.81
19096;BME280;9680;52.520;13.332;2023-04-27T12:19:07;101763.84;;;14.44;32.84
19096;BME280;9680;52.520;13.332;2023-04-27T12:21:33;101762.78;;;14.74;32.75
19096;BME280;9680;52.520;13.332;2023-04-27T12:24:02;101764.94;;;14.84;32.49
19096;BME280;9680;52.520;13.332;2023-04-27T12:26:28;101762.66;;;14.99;32.53
19096;BME280;9680;52.520;13.332;2023-04-27T12:28:55;101751.91;;;15.05;31.92
19096;BME280;9680;52.520;13.332;2023-04-27T12:31:22;101756.41;;;15.02;31.37
19096;BME280;9680;52.520;13.332;2023-04-27T12:33:49;101759.06;;;14.55;31.70
19096;BME280;9680;52.520;13.332;2023-04-27T12:36:16;101753.47;;;14.17;32.15
19096;BME280;9680;52.520;13.332;2023-04-27T12:38:43;101763.28;;;14.12;32.49
19096;BME280;9680;52.520;13.332;2023-04-27T12:41:12;101758.50;;;14.00;32.46
19096;BME280;9680;52.520;13.332;2023-04-27T12:43:38;101763.16;;;13.91;32.79
19096;BME280;9680;52.520;13.332;2023-04-27T12:46:05;101767.06;;;13.79;32.87
19096;BME280;9680;52.520;13.332;2023-04-27T12:48:32;101754.34;;;14.18;33.32
19096;BME280;9680;52.520;13.332;2023-04-27T12:50:59;101762.34;;;14.61;32.93
19096;BME280;9680;52.520;13.332;2023-04-27T12:53:27;101752.28;;;14.96;32.54
19096;BME280;9680;52.520;13.332;2023-04-27T12:55:53;101760.34;;;15.12;31.83
19096;BME280;9680;52.520;13.332;2023-04-27T12:58:22;101767.81;;;15.23;32.53